sensor_id;sensor_type;location;lat;lon;timestamp;pressure;altitude;pressure_sealevel;temperature;humidity
54872;BME280;43914;57.680;11.982;2023-02-26T00:02:08;100933.39;;;-2.10;77.79
54872;BME280;43914;57.680;11.982;2023-02-26T00:04:35;100933.95;;;-2.11;77.80
54872;BME280;43914;57.680;11.982;2023-02-26T00:07:02;100941.50;;;-2.11;77.75
54872;BME280;43914;57.680;11.982;2023-02-26T00:09:29;100943.71;;;-2.13;77.89
54872;BME280;43914;57.680;11.982;2023-02-26T00:11:56;100947.21;;;-2.12;77.74
54872;BME280;43914;57.680;11.982;2023-02-26T00:14:22;100948.29;;;-2.13;77.69
54872;BME280;43914;57.680;11.982;2023-02-26T00:17:16;100956.29;;;-2.11;78.10
54872;BME280;43914;57.680;11.982;2023-02-26T00:19:47;100958.70;;;-2.11;77.46
54872;BME280;43914;57.680;11.982;2023-02-26T00:22:13;100956.58;;;-2.11;77.50
54872;BME280;43914;57.680;11.982;2023-02-26T00:24:39;100952.80;;;-2.09;77.36
54872;BME280;43914;57.680;11.982;2023-02-26T00:27:04;100961.16;;;-2.08;77.52
54872;BME280;43914;57.680;11.982;2023-02-26T00:29:30;100964.27;;;-2.08;77.53
54872;BME280;43914;57.680;11.982;2023-02-26T00:31:56;100967.70;;;-2.06;77.32
54872;BME280;43914;57.680;11.982;2023-02-26T00:34:21;100971.20;;;-2.06;77.35
54872;BME280;43914;57.680;11.982;2023-02-26T00:42:25;100973.30;;;-2.06;77.08
54872;BME280;43914;57.680;11.982;2023-02-26T00:44:51;100973.33;;;-2.06;76.92
54872;BME280;43914;57.680;11.982;2023-02-26T00:47:43;100979.95;;;-2.06;77.07
54872;BME280;43914;57.680;11.982;2023-02-26T00:50:19;100983.33;;;-2.09;76.98
54872;BME280;43914;57.680;11.982;2023-02-26T00:52:56;100983.77;;;-2.10;77.01
54872;BME280;43914;57.680;11.982;2023-02-26T00:55:24;100981.42;;;-2.12;77.04
54872;BME280;43914;57.680;11.982;2023-02-26T00:57:49;100983.63;;;-2.14;77.23
54872;BME280;43914;57.680;11.982;2023-02-26T01:00:16;100988.62;;;-2.15;77.03
54872;BME280;43914;57.680;11.982;2023-02-26T01:02:42;100987.28;;;-2.16;77.15
54872;BME280;43914;57.680;11.982;2023-02-26T01:05:09;100994.23;;;-2.18;76.96
54872;BME280;43914;57.680;11.982;2023-02-26T01:10:30;100996.19;;;-2.21;77.28
54872;BME280;43914;57.680;11.982;2023-02-26T01:12:56;101004.06;;;-2.21;77.47
54872;BME280;43914;57.680;11.982;2023-02-26T01:15:23;101006.48;;;-2.23;77.55
54872;BME280;43914;57.680;11.982;2023-02-26T01:20:31;101007.43;;;-2.24;77.66
54872;BME280;43914;57.680;11.982;2023-02-26T01:23:08;101017.39;;;-2.26;77.62
54872;BME280;43914;57.680;11.982;2023-02-26T01:25:49;101023.61;;;-2.27;77.59
54872;BME280;43914;57.680;11.982;2023-02-26T01:28:15;101028.23;;;-2.28;77.65
54872;BME280;43914;57.680;11.982;2023-02-26T01:30:42;101032.73;;;-2.30;77.59
54872;BME280;43914;57.680;11.982;2023-02-26T01:33:23;101035.52;;;-2.30;77.68
54872;BME280;43914;57.680;11.982;2023-02-26T01:35:54;101036.47;;;-2.31;77.61
54872;BME280;43914;57.680;11.982;2023-02-26T01:38:50;101037.56;;;-2.32;77.86
54872;BME280;43914;57.680;11.982;2023-02-26T01:44:12;101040.09;;;-2.33;77.83
54872;BME280;43914;57.680;11.982;2023-02-26T01:47:13;101042.36;;;-2.33;77.83
54872;BME280;43914;57.680;11.982;2023-02-26T01:49:40;101047.30;;;-2.33;77.93
54872;BME280;43914;57.680;11.982;2023-02-26T01:55:11;101050.17;;;-2.34;77.79
54872;BME280;43914;57.680;11.982;2023-02-26T01:57:38;101060.19;;;-2.35;77.97
54872;BME280;43914;57.680;11.982;2023-02-26T02:00:06;101060.45;;;-2.36;77.68
54872;BME280;43914;57.680;11.982;2023-02-26T02:02:32;101066.65;;;-2.37;77.74
54872;BME280;43914;57.680;11.982;2023-02-26T02:05:02;101068.14;;;-2.38;77.80
54872;BME280;43914;57.680;11.982;2023-02-26T02:07:29;101073.73;;;-2.38;77.68
54872;BME280;43914;57.680;11.982;2023-02-26T02:09:55;101077.86;;;-2.39;77.65
54872;BME280;43914;57.680;11.982;2023-02-26T02:12:40;101084.28;;;-2.41;77.89
54872;BME280;43914;57.680;11.982;2023-02-26T02:15:14;101087.58;;;-2.43;77.63
54872;BME280;43914;57.680;11.982;2023-02-26T02:30:39;101100.50;;;-2.52;78.03
54872;BME280;43914;57.680;11.982;2023-02-26T02:33:14;101098.83;;;-2.53;78.01
54872;BME280;43914;57.680;11.982;2023-02-26T02:35:59;101101.01;;;-2.54;78.19
54872;BME280;43914;57.680;11.982;2023-02-26T02:38:38;101104.65;;;-2.56;78.33
54872;BME280;43914;57.680;11.982;2023-02-26T02:41:14;101106.38;;;-2.59;78.61
54872;BME280;43914;57.680;11.982;2023-02-26T02:43:42;101118.36;;;-2.60;78.54
54872;BME280;43914;57.680;11.982;2023-02-26T02:46:24;101122.16;;;-2.62;78.44
54872;BME280;43914;57.680;11.982;2023-02-26T02:51:44;101127.85;;;-2.64;78.57
54872;BME280;43914;57.680;11.982;2023-02-26T02:54:15;101127.77;;;-2.65;78.73
54872;BME280;43914;57.680;11.982;2023-02-26T02:59:24;101135.90;;;-2.67;78.48
54872;BME280;43914;57.680;11.982;2023-02-26T03:02:22;101141.27;;;-2.68;78.85
54872;BME280;43914;57.680;11.982;2023-02-26T03:04:52;101140.13;;;-2.70;79.09
54872;BME280;43914;57.680;11.982;2023-02-26T03:07:18;101142.92;;;-2.72;79.21
54872;BME280;43914;57.680;11.982;2023-02-26T03:09:44;101139.73;;;-2.75;79.31
54872;BME280;43914;57.680;11.982;2023-02-26T03:12:10;101142.42;;;-2.76;79.49
54872;BME280;43914;57.680;11.982;2023-02-26T03:14:36;101138.52;;;-2.78;79.67
54872;BME280;43914;57.680;11.982;2023-02-26T03:17:26;101136.52;;;-2.80;79.78
54872;BME280;43914;57.680;11.982;2023-02-26T03:23:10;101140.43;;;-2.84;79.82
54872;BME280;43914;57.680;11.982;2023-02-26T03:28:44;101151.09;;;-2.86;80.33
54872;BME280;43914;57.680;11.982;2023-02-26T03:31:17;101153.96;;;-2.88;80.65
54872;BME280;43914;57.680;11.982;2023-02-26T03:34:07;101159.16;;;-2.90;80.57
54872;BME280;43914;57.680;11.982;2023-02-26T03:36:56;101159.57;;;-2.91;80.82
54872;BME280;43914;57.680;11.982;2023-02-26T03:42:42;101174.88;;;-2.92;80.92
54872;BME280;43914;57.680;11.982;2023-02-26T03:45:13;101177.85;;;-2.92;81.16
54872;BME280;43914;57.680;11.982;2023-02-26T03:47:44;101181.60;;;-2.93;81.27
54872;BME280;43914;57.680;11.982;2023-02-26T03:53:06;101182.38;;;-2.94;81.63
54872;BME280;43914;57.680;11.982;2023-02-26T03:55:37;101183.15;;;-2.96;81.69
54872;BME280;43914;57.680;11.982;2023-02-26T03:58:06;101183.20;;;-2.96;81.98
54872;BME280;43914;57.680;11.982;2023-02-26T04:00:33;101185.06;;;-2.99;82.00
54872;BME280;43914;57.680;11.982;2023-02-26T04:03:16;101186.09;;;-2.98;82.30
54872;BME280;43914;57.680;11.982;2023-02-26T04:05:48;101187.15;;;-2.98;82.24
54872;BME280;43914;57.680;11.982;2023-02-26T04:08:15;101186.35;;;-2.97;82.15
54872;BME280;43914;57.680;11.982;2023-02-26T04:11:08;101187.28;;;-2.98;82.48
54872;BME280;43914;57.680;11.982;2023-02-26T04:13:35;101196.71;;;-2.97;82.32
54872;BME280;43914;57.680;11.982;2023-02-26T04:16:01;101197.64;;;-2.98;82.31
54872;BME280;43914;57.680;11.982;2023-02-26T04:18:27;101205.73;;;-2.98;82.37
54872;BME280;43914;57.680;11.982;2023-02-26T04:20:52;101206.90;;;-2.97;82.62
54872;BME280;43914;57.680;11.982;2023-02-26T04:23:18;101217.02;;;-2.96;82.59
54872;BME280;43914;57.680;11.982;2023-02-26T04:25:44;101215.42;;;-2.96;82.47
54872;BME280;43914;57.680;11.982;2023-02-26T04:28:10;101217.52;;;-2.96;82.76
54872;BME280;43914;57.680;11.982;2023-02-26T04:30:36;101215.09;;;-2.96;82.56
54872;BME280;43914;57.680;11.982;2023-02-26T04:33:02;101216.15;;;-2.96;82.47
54872;BME280;43914;57.680;11.982;2023-02-26T04:35:28;101231.39;;;-2.96;82.57
54872;BME280;43914;57.680;11.982;2023-02-26T04:37:53;101232.91;;;-2.98;82.86
54872;BME280;43914;57.680;11.982;2023-02-26T04:40:19;101227.31;;;-3.05;82.79
54872;BME280;43914;57.680;11.982;2023-02-26T04:42:45;101234.84;;;-3.02;82.91
54872;BME280;43914;57.680;11.982;2023-02-26T04:45:10;101236.58;;;-3.01;83.39
54872;BME280;43914;57.680;11.982;2023-02-26T04:47:36;101231.23;;;-3.03;83.13
54872;BME280;43914;57.680;11.982;2023-02-26T04:50:02;101233.83;;;-3.02;83.50
54872;BME280;43914;57.680;11.982;2023-02-26T04:52:28;101228.50;;;-3.04;83.76
54872;BME280;43914;57.680;11.982;2023-02-26T04:54:53;101230.02;;;-3.03;83.67
54872;BME280;43914;57.680;11.982;2023-02-26T04:57:18;101230.55;;;-3.03;83.82
54872;BME280;43914;57.680;11.982;2023-02-26T04:59:44;101234.48;;;-3.05;83.86
54872;BME280;43914;57.680;11.982;2023-02-26T05:02:10;101235.20;;;-3.05;84.12
54872;BME280;43914;57.680;11.982;2023-02-26T05:04:35;101243.85;;;-3.06;84.21
54872;BME280;43914;57.680;11.982;2023-02-26T05:07:01;101245.62;;;-3.07;84.25
54872;BME280;43914;57.680;11.982;2023-02-26T05:09:26;101249.17;;;-3.07;84.26
54872;BME280;43914;57.680;11.982;2023-02-26T05:11:52;101249.30;;;-3.10;84.51
54872;BME280;43914;57.680;11.982;2023-02-26T05:14:17;101251.15;;;-3.11;84.52
54872;BME280;43914;57.680;11.982;2023-02-26T05:16:43;101259.38;;;-3.11;84.96
54872;BME280;43914;57.680;11.982;2023-02-26T05:19:09;101257.09;;;-3.11;84.87
54872;BME280;43914;57.680;11.982;2023-02-26T05:21:34;101264.10;;;-3.11;84.87
54872;BME280;43914;57.680;11.982;2023-02-26T05:24:00;101269.88;;;-3.11;85.20
54872;BME280;43914;57.680;11.982;2023-02-26T05:26:25;101266.27;;;-3.12;85.07
54872;BME280;43914;57.680;11.982;2023-02-26T05:28:51;101272.23;;;-3.13;85.38
54872;BME280;43914;57.680;11.982;2023-02-26T05:31:17;101272.50;;;-3.14;85.24
54872;BME280;43914;57.680;11.982;2023-02-26T05:33:42;101273.09;;;-3.15;85.64
54872;BME280;43914;57.680;11.982;2023-02-26T05:36:08;101278.21;;;-3.16;85.68
54872;BME280;43914;57.680;11.982;2023-02-26T05:38:34;101280.34;;;-3.16;85.76
54872;BME280;43914;57.680;11.982;2023-02-26T05:41:00;101275.73;;;-3.19;85.70
54872;BME280;43914;57.680;11.982;2023-02-26T05:43:26;101272.23;;;-3.19;85.84
54872;BME280;43914;57.680;11.982;2023-02-26T05:45:52;101270.73;;;-3.21;86.01
54872;BME280;43914;57.680;11.982;2023-02-26T05:48:20;101273.77;;;-3.22;85.99
54872;BME280;43914;57.680;11.982;2023-02-26T05:50:48;101280.98;;;-3.22;86.20
54872;BME280;43914;57.680;11.982;2023-02-26T05:53:13;101278.86;;;-3.22;86.38
54872;BME280;43914;57.680;11.982;2023-02-26T05:55:39;101282.92;;;-3.22;86.39
54872;BME280;43914;57.680;11.982;2023-02-26T05:58:05;101292.50;;;-3.21;86.59
54872;BME280;43914;57.680;11.982;2023-02-26T06:00:30;101295.50;;;-3.22;86.75
54872;BME280;43914;57.680;11.982;2023-02-26T06:02:56;101298.77;;;-3.21;86.74
54872;BME280;43914;57.680;11.982;2023-02-26T06:05:21;101299.30;;;-3.21;86.96
54872;BME280;43914;57.680;11.982;2023-02-26T06:07:47;101301.73;;;-3.20;86.67
54872;BME280;43914;57.680;11.982;2023-02-26T06:10:13;101308.91;;;-3.20;87.02
54872;BME280;43914;57.680;11.982;2023-02-26T06:12:38;101310.01;;;-3.21;86.91
54872;BME280;43914;57.680;11.982;2023-02-26T06:15:06;101313.63;;;-3.20;86.78
54872;BME280;43914;57.680;11.982;2023-02-26T06:17:32;101319.13;;;-3.21;87.11
54872;BME280;43914;57.680;11.982;2023-02-26T06:19:59;101321.95;;;-3.21;86.88
54872;BME280;43914;57.680;11.982;2023-02-26T06:22:25;101328.11;;;-3.22;86.92
54872;BME280;43914;57.680;11.982;2023-02-26T06:24:50;101330.45;;;-3.23;87.08
54872;BME280;43914;57.680;11.982;2023-02-26T06:27:17;101335.97;;;-3.21;87.30
54872;BME280;43914;57.680;11.982;2023-02-26T06:29:42;101339.77;;;-3.20;87.28
54872;BME280;43914;57.680;11.982;2023-02-26T06:32:08;101339.79;;;-3.21;87.30
54872;BME280;43914;57.680;11.982;2023-02-26T06:34:33;101340.19;;;-3.18;87.48
54872;BME280;43914;57.680;11.982;2023-02-26T06:36:59;101343.08;;;-3.16;87.29
54872;BME280;43914;57.680;11.982;2023-02-26T06:39:24;101343.95;;;-3.16;87.50
54872;BME280;43914;57.680;11.982;2023-02-26T06:41:50;101342.78;;;-3.14;87.36
54872;BME280;43914;57.680;11.982;2023-02-26T06:44:15;101347.13;;;-3.13;87.05
54872;BME280;43914;57.680;11.982;2023-02-26T06:46:41;101351.29;;;-3.12;87.08
54872;BME280;43914;57.680;11.982;2023-02-26T06:49:07;101356.57;;;-3.13;87.15
54872;BME280;43914;57.680;11.982;2023-02-26T06:51:34;101364.27;;;-3.12;87.33
54872;BME280;43914;57.680;11.982;2023-02-26T06:54:00;101365.60;;;-3.11;87.08
54872;BME280;43914;57.680;11.982;2023-02-26T06:56:26;101370.34;;;-3.11;87.29
54872;BME280;43914;57.680;11.982;2023-02-26T06:58:51;101372.70;;;-3.09;87.26
54872;BME280;43914;57.680;11.982;2023-02-26T07:01:18;101375.06;;;-3.08;87.09
54872;BME280;43914;57.680;11.982;2023-02-26T07:03:43;101377.09;;;-3.06;86.99
54872;BME280;43914;57.680;11.982;2023-02-26T07:06:10;101384.20;;;-3.05;87.00
54872;BME280;43914;57.680;11.982;2023-02-26T07:08:36;101383.20;;;-3.02;87.19
54872;BME280;43914;57.680;11.982;2023-02-26T07:11:02;101388.70;;;-3.00;87.04
54872;BME280;43914;57.680;11.982;2023-02-26T07:13:28;101389.39;;;-2.97;86.91
54872;BME280;43914;57.680;11.982;2023-02-26T07:15:54;101392.94;;;-2.94;86.96
54872;BME280;43914;57.680;11.982;2023-02-26T07:18:19;101394.23;;;-2.92;86.95
54872;BME280;43914;57.680;11.982;2023-02-26T07:20:48;101398.73;;;-2.87;86.82
54872;BME280;43914;57.680;11.982;2023-02-26T07:23:14;101399.48;;;-2.85;86.62
54872;BME280;43914;57.680;11.982;2023-02-26T07:25:40;101410.36;;;-2.82;86.61
54872;BME280;43914;57.680;11.982;2023-02-26T07:28:05;101417.01;;;-2.78;86.67
54872;BME280;43914;57.680;11.982;2023-02-26T07:30:31;101422.95;;;-2.74;86.46
54872;BME280;43914;57.680;11.982;2023-02-26T07:32:57;101424.73;;;-2.71;86.47
54872;BME280;43914;57.680;11.982;2023-02-26T07:35:23;101425.60;;;-2.68;86.24
54872;BME280;43914;57.680;11.982;2023-02-26T07:37:48;101426.20;;;-2.66;85.94
54872;BME280;43914;57.680;11.982;2023-02-26T07:40:14;101425.02;;;-2.63;85.73
54872;BME280;43914;57.680;11.982;2023-02-26T07:42:40;101429.08;;;-2.60;85.73
54872;BME280;43914;57.680;11.982;2023-02-26T07:45:06;101428.95;;;-2.58;85.61
54872;BME280;43914;57.680;11.982;2023-02-26T07:47:33;101433.64;;;-2.54;85.66
54872;BME280;43914;57.680;11.982;2023-02-26T07:49:58;101433.02;;;-2.52;85.22
54872;BME280;43914;57.680;11.982;2023-02-26T07:52:24;101439.77;;;-2.47;85.12
54872;BME280;43914;57.680;11.982;2023-02-26T07:54:50;101440.77;;;-2.42;85.13
54872;BME280;43914;57.680;11.982;2023-02-26T07:57:16;101437.27;;;-2.40;84.73
54872;BME280;43914;57.680;11.982;2023-02-26T07:59:42;101437.19;;;-2.35;85.02
54872;BME280;43914;57.680;11.982;2023-02-26T08:02:09;101442.30;;;-2.28;85.00
54872;BME280;43914;57.680;11.982;2023-02-26T08:04:34;101441.45;;;-2.23;84.83
54872;BME280;43914;57.680;11.982;2023-02-26T08:07:00;101447.21;;;-2.18;84.39
54872;BME280;43914;57.680;11.982;2023-02-26T08:09:26;101444.36;;;-2.15;84.22
54872;BME280;43914;57.680;11.982;2023-02-26T08:11:52;101454.09;;;-2.09;84.20
54872;BME280;43914;57.680;11.982;2023-02-26T08:14:17;101455.19;;;-2.04;84.14
54872;BME280;43914;57.680;11.982;2023-02-26T08:16:43;101457.09;;;-2.00;83.43
54872;BME280;43914;57.680;11.982;2023-02-26T08:19:09;101444.25;;;-2.03;83.36
54872;BME280;43914;57.680;11.982;2023-02-26T08:21:35;101458.63;;;-1.90;83.25
54872;BME280;43914;57.680;11.982;2023-02-26T08:24:01;101462.63;;;-1.82;83.54
54872;BME280;43914;57.680;11.982;2023-02-26T08:26:26;101466.37;;;-1.78;83.41
54872;BME280;43914;57.680;11.982;2023-02-26T08:28:52;101464.13;;;-1.75;82.41
54872;BME280;43914;57.680;11.982;2023-02-26T08:31:18;101474.74;;;-1.66;81.97
54872;BME280;43914;57.680;11.982;2023-02-26T08:33:45;101469.95;;;-1.63;81.98
54872;BME280;43914;57.680;11.982;2023-02-26T08:36:11;101476.67;;;-1.57;81.62
54872;BME280;43914;57.680;11.982;2023-02-26T08:38:37;101474.35;;;-1.54;81.50
54872;BME280;43914;57.680;11.982;2023-02-26T08:41:04;101474.64;;;-1.49;81.48
54872;BME280;43914;57.680;11.982;2023-02-26T08:43:29;101478.42;;;-1.45;81.15
54872;BME280;43914;57.680;11.982;2023-02-26T08:45:56;101481.23;;;-1.41;80.70
54872;BME280;43914;57.680;11.982;2023-02-26T08:48:23;101485.13;;;-1.36;80.40
54872;BME280;43914;57.680;11.982;2023-02-26T08:50:48;101490.45;;;-1.30;80.36
54872;BME280;43914;57.680;11.982;2023-02-26T08:53:15;101488.61;;;-1.26;79.91
54872;BME280;43914;57.680;11.982;2023-02-26T08:55:40;101493.21;;;-1.20;80.12
54872;BME280;43914;57.680;11.982;2023-02-26T08:58:08;101492.83;;;-1.13;79.49
54872;BME280;43914;57.680;11.982;2023-02-26T09:00:33;101490.95;;;-1.11;78.59
54872;BME280;43914;57.680;11.982;2023-02-26T09:02:59;101494.95;;;-1.07;77.67
54872;BME280;43914;57.680;11.982;2023-02-26T09:05:24;101496.87;;;-1.04;77.58
54872;BME280;43914;57.680;11.982;2023-02-26T09:07:50;101501.33;;;-0.99;78.11
54872;BME280;43914;57.680;11.982;2023-02-26T09:10:16;101505.00;;;-0.93;78.37
54872;BME280;43914;57.680;11.982;2023-02-26T09:12:42;101506.52;;;-0.89;77.42
54872;BME280;43914;57.680;11.982;2023-02-26T09:15:09;101507.95;;;-0.83;78.04
54872;BME280;43914;57.680;11.982;2023-02-26T09:17:36;101511.23;;;-0.76;78.56
54872;BME280;43914;57.680;11.982;2023-02-26T09:20:03;101510.30;;;-0.69;78.06
54872;BME280;43914;57.680;11.982;2023-02-26T09:22:29;101512.18;;;-0.62;78.12
54872;BME280;43914;57.680;11.982;2023-02-26T09:24:55;101515.64;;;-0.55;77.07
54872;BME280;43914;57.680;11.982;2023-02-26T09:27:20;101518.41;;;-0.48;77.56
54872;BME280;43914;57.680;11.982;2023-02-26T09:29:46;101522.17;;;-0.43;76.24
54872;BME280;43914;57.680;11.982;2023-02-26T09:32:11;101525.69;;;-0.38;76.05
54872;BME280;43914;57.680;11.982;2023-02-26T09:34:37;101526.82;;;-0.33;74.89
54872;BME280;43914;57.680;11.982;2023-02-26T09:37:08;101529.70;;;-0.25;76.01
54872;BME280;43914;57.680;11.982;2023-02-26T09:39:34;101530.67;;;-0.18;75.63
54872;BME280;43914;57.680;11.982;2023-02-26T09:44:53;101527.77;;;-0.02;74.05
54872;BME280;43914;57.680;11.982;2023-02-26T09:47:32;101533.39;;;0.04;74.20
54872;BME280;43914;57.680;11.982;2023-02-26T09:50:27;101537.70;;;0.11;73.11
54872;BME280;43914;57.680;11.982;2023-02-26T09:53:14;101537.11;;;0.18;71.69
54872;BME280;43914;57.680;11.982;2023-02-26T09:55:44;101538.83;;;0.24;71.28
54872;BME280;43914;57.680;11.982;2023-02-26T09:58:23;101535.96;;;0.30;71.74
54872;BME280;43914;57.680;11.982;2023-02-26T10:01:04;101538.98;;;0.41;73.05
54872;BME280;43914;57.680;11.982;2023-02-26T10:03:45;101546.76;;;0.52;72.36
54872;BME280;43914;57.680;11.982;2023-02-26T10:06:26;101552.25;;;0.60;70.41
54872;BME280;43914;57.680;11.982;2023-02-26T10:12:22;101550.25;;;0.75;69.95
54872;BME280;43914;57.680;11.982;2023-02-26T10:17:41;101556.23;;;0.89;68.19
54872;BME280;43914;57.680;11.982;2023-02-26T10:23:31;101545.92;;;1.03;68.85
54872;BME280;43914;57.680;11.982;2023-02-26T10:26:22;101551.30;;;1.10;67.58
54872;BME280;43914;57.680;11.982;2023-02-26T10:37:47;101550.27;;;1.39;66.23
54872;BME280;43914;57.680;11.982;2023-02-26T10:40:36;101550.13;;;1.46;66.71
54872;BME280;43914;57.680;11.982;2023-02-26T10:43:20;101557.83;;;1.55;67.07
54872;BME280;43914;57.680;11.982;2023-02-26T10:46:29;101555.20;;;1.60;66.68
54872;BME280;43914;57.680;11.982;2023-02-26T10:51:43;101565.27;;;1.73;64.62
54872;BME280;43914;57.680;11.982;2023-02-26T10:54:17;101563.27;;;1.77;64.02
54872;BME280;43914;57.680;11.982;2023-02-26T10:56:43;101566.21;;;1.80;63.78
54872;BME280;43914;57.680;11.982;2023-02-26T10:59:10;101564.82;;;1.87;64.80
54872;BME280;43914;57.680;11.982;2023-02-26T11:01:35;101565.92;;;1.94;64.38
54872;BME280;43914;57.680;11.982;2023-02-26T11:04:11;101567.14;;;1.99;63.74
54872;BME280;43914;57.680;11.982;2023-02-26T11:06:47;101567.98;;;2.03;62.29
54872;BME280;43914;57.680;11.982;2023-02-26T11:09:31;101567.44;;;2.08;63.29
54872;BME280;43914;57.680;11.982;2023-02-26T11:14:50;101570.77;;;2.21;62.91
54872;BME280;43914;57.680;11.982;2023-02-26T11:17:18;101574.48;;;2.29;63.47
54872;BME280;43914;57.680;11.982;2023-02-26T11:20:00;101574.11;;;2.37;63.07
54872;BME280;43914;57.680;11.982;2023-02-26T11:22:32;101574.05;;;2.43;61.33
54872;BME280;43914;57.680;11.982;2023-02-26T11:25:01;101570.34;;;2.48;61.84
54872;BME280;43914;57.680;11.982;2023-02-26T11:27:37;101570.67;;;2.53;61.03
54872;BME280;43914;57.680;11.982;2023-02-26T11:30:06;101571.79;;;2.59;60.38
54872;BME280;43914;57.680;11.982;2023-02-26T11:32:39;101568.02;;;2.62;60.11
54872;BME280;43914;57.680;11.982;2023-02-26T11:35:08;101562.83;;;2.68;60.09
54872;BME280;43914;57.680;11.982;2023-02-26T11:37:41;101558.08;;;2.75;60.38
54872;BME280;43914;57.680;11.982;2023-02-26T11:40:38;101555.84;;;2.81;60.19
54872;BME280;43914;57.680;11.982;2023-02-26T11:43:14;101553.67;;;2.90;60.17
54872;BME280;43914;57.680;11.982;2023-02-26T11:45:42;101551.65;;;2.95;59.61
54872;BME280;43914;57.680;11.982;2023-02-26T11:48:15;101551.31;;;2.98;58.90
54872;BME280;43914;57.680;11.982;2023-02-26T11:50:45;101548.14;;;3.00;59.03
54872;BME280;43914;57.680;11.982;2023-02-26T11:56:12;101542.95;;;3.10;59.27
54872;BME280;43914;57.680;11.982;2023-02-26T11:58:40;101543.11;;;3.15;59.37
54872;BME280;43914;57.680;11.982;2023-02-26T12:01:10;101537.83;;;3.24;60.01
54872;BME280;43914;57.680;11.982;2023-02-26T12:03:38;101538.98;;;3.32;59.40
54872;BME280;43914;57.680;11.982;2023-02-26T12:06:15;101536.91;;;3.36;59.08
54872;BME280;43914;57.680;11.982;2023-02-26T12:08:41;101539.58;;;3.41;58.97
54872;BME280;43914;57.680;11.982;2023-02-26T12:14:18;101534.62;;;3.39;58.23
54872;BME280;43914;57.680;11.982;2023-02-26T12:22:41;101533.80;;;3.42;57.28
54872;BME280;43914;57.680;11.982;2023-02-26T12:28:14;101528.48;;;3.50;56.48
54872;BME280;43914;57.680;11.982;2023-02-26T12:39:35;101518.69;;;3.66;54.41
54872;BME280;43914;57.680;11.982;2023-02-26T12:47:42;101520.64;;;3.87;55.02
54872;BME280;43914;57.680;11.982;2023-02-26T12:50:18;101523.05;;;3.97;55.14
54872;BME280;43914;57.680;11.982;2023-02-26T12:55:35;101522.17;;;4.13;52.73
54872;BME280;43914;57.680;11.982;2023-02-26T13:17:59;101520.96;;;4.85;50.55
54872;BME280;43914;57.680;11.982;2023-02-26T13:20:27;101510.41;;;4.90;49.61
54872;BME280;43914;57.680;11.982;2023-02-26T13:23:12;101521.79;;;5.07;48.90
54872;BME280;43914;57.680;11.982;2023-02-26T13:25:50;101526.17;;;5.15;47.74
54872;BME280;43914;57.680;11.982;2023-02-26T13:28:44;101521.51;;;5.24;48.56
54872;BME280;43914;57.680;11.982;2023-02-26T13:31:49;101520.14;;;5.31;49.09
54872;BME280;43914;57.680;11.982;2023-02-26T13:36:50;101522.95;;;5.29;49.32
54872;BME280;43914;57.680;11.982;2023-02-26T13:39:49;101516.61;;;5.23;48.10
54872;BME280;43914;57.680;11.982;2023-02-26T13:45:19;101527.41;;;4.95;47.52
54872;BME280;43914;57.680;11.982;2023-02-26T13:47:54;101521.66;;;4.81;47.94
54872;BME280;43914;57.680;11.982;2023-02-26T13:50:29;101520.99;;;4.67;47.78
54872;BME280;43914;57.680;11.982;2023-02-26T13:56:05;101529.17;;;4.45;48.71
54872;BME280;43914;57.680;11.982;2023-02-26T13:58:41;101533.43;;;4.36;48.54
54872;BME280;43914;57.680;11.982;2023-02-26T14:01:26;101533.48;;;4.29;48.55
54872;BME280;43914;57.680;11.982;2023-02-26T14:04:20;101536.86;;;4.22;48.92
54872;BME280;43914;57.680;11.982;2023-02-26T14:06:51;101542.85;;;4.13;48.39
54872;BME280;43914;57.680;11.982;2023-02-26T14:11:57;101543.94;;;3.99;48.69
54872;BME280;43914;57.680;11.982;2023-02-26T14:17:27;101541.66;;;3.85;48.38
54872;BME280;43914;57.680;11.982;2023-02-26T14:22:27;101538.42;;;3.77;48.62
54872;BME280;43914;57.680;11.982;2023-02-26T14:27:43;101540.54;;;3.72;48.12
54872;BME280;43914;57.680;11.982;2023-02-26T14:35:22;101538.50;;;3.64;47.47
54872;BME280;43914;57.680;11.982;2023-02-26T14:37:57;101536.02;;;3.62;47.85
54872;BME280;43914;57.680;11.982;2023-02-26T14:40:25;101533.44;;;3.57;48.79
54872;BME280;43914;57.680;11.982;2023-02-26T14:42:56;101542.88;;;3.58;48.30
54872;BME280;43914;57.680;11.982;2023-02-26T14:47:51;101546.54;;;3.59;48.62
54872;BME280;43914;57.680;11.982;2023-02-26T14:50:20;101545.52;;;3.58;48.56
54872;BME280;43914;57.680;11.982;2023-02-26T14:55:34;101541.64;;;3.56;48.20
54872;BME280;43914;57.680;11.982;2023-02-26T14:58:35;101549.91;;;3.56;48.38
54872;BME280;43914;57.680;11.982;2023-02-26T15:01:22;101556.86;;;3.56;48.12
54872;BME280;43914;57.680;11.982;2023-02-26T15:04:02;101556.30;;;3.54;47.59
54872;BME280;43914;57.680;11.982;2023-02-26T15:09:55;101558.59;;;3.52;47.80
54872;BME280;43914;57.680;11.982;2023-02-26T15:15:36;101561.07;;;3.48;49.01
54872;BME280;43914;57.680;11.982;2023-02-26T15:20:45;101567.73;;;3.46;48.97
54872;BME280;43914;57.680;11.982;2023-02-26T15:23:37;101565.85;;;3.45;49.92
54872;BME280;43914;57.680;11.982;2023-02-26T15:26:05;101559.60;;;3.38;50.49
54872;BME280;43914;57.680;11.982;2023-02-26T15:28:35;101570.95;;;3.40;50.57
54872;BME280;43914;57.680;11.982;2023-02-26T15:31:03;101566.65;;;3.39;50.90
54872;BME280;43914;57.680;11.982;2023-02-26T15:33:31;101569.17;;;3.38;51.01
54872;BME280;43914;57.680;11.982;2023-02-26T15:35:58;101566.48;;;3.39;51.06
54872;BME280;43914;57.680;11.982;2023-02-26T15:38:24;101567.40;;;3.41;51.28
54872;BME280;43914;57.680;11.982;2023-02-26T15:40:53;101567.13;;;3.42;51.30
54872;BME280;43914;57.680;11.982;2023-02-26T15:43:27;101570.27;;;3.43;51.33
54872;BME280;43914;57.680;11.982;2023-02-26T15:45:55;101574.86;;;3.43;51.50